Decoded Metar for LFBC (CAZAUX in FRANCE) (IATA:N/A) | Meteo·Mobile Aviation Weather
aviador You're here:

LFBC Decoded Metar

CAZAUX in FRANCE
Report Time2018-09-22 19:00:00
UTC Time2018-09-22 19:25:26
Flight Rules vfr VFR
Wind240° at 05 kt
W.Decomp.*RWY 24: 5.0 kt HW 0.1 kt RCW
W.Rank240° ranks 14
Current wind is below 240° avg. (7.1)
Visibility9999 m
Phenomena:N/A
Clouds:N/A
Expected CloudBase > 2,400 ft AGL from Temp-Dew spread
CeilingNone
Temp20°C (ISA +5)
Dew Point14°C (69% RH)
AAT19.5°C
QNH1023 hPa
Density Alt597 ft
Elevation108 ft
Report Wrong Elevation
Raw Report
LFBC 221900Z AUTO 24005KT CAVOK 20/14 Q1023=

Extra information for LFBC:More info

Metar Taf Metar & Taf Last 4 Metars F.Rules Stats Wind Profile Meteogram Temp Stats Airport Information Weather charts Add Link Nearby VenuesMetar ALERT Operation Metar Decoded Social comments